Time;durP1;ratioP1;P1;durP2;ratioP2;P2;SDS_P1;SDS_P2;PMS_P1;PMS_P2;Temp;Humidity;BMP_temperature;BMP_pressure;BME280_temperature;BME280_humidity;BME280_pressure;Samples;Min_cycle;Max_cycle;Signal;HPM_P1;HPM_P2
2021/01/07 00:01:57;;;;;;;19.40;10.75;;;2.10;73.40;;;;;;5082744;28;20062;-68
2021/01/07 00:04:22;;;;;;;16.92;9.95;;;2.10;73.20;;;;;;5046454;28;20193;-68
2021/01/07 00:06:48;;;;;;;18.65;10.95;;;2.20;73.30;;;;;;5063065;28;20051;-68
2021/01/07 00:09:13;;;;;;;18.35;10.25;;;2.20;73.50;;;;;;5082648;28;20062;-68
2021/01/07 00:11:40;;;;;;;20.75;11.32;;;2.20;73.80;;;;;;5081670;28;20256;-68
2021/01/07 00:14:09;;;;;;;16.60;10.25;;;2.10;73.90;;;;;;5081434;28;20052;-68
2021/01/07 00:16:35;;;;;;;17.25;10.52;;;2.20;73.80;;;;;;5079154;28;20036;-68
2021/01/07 00:19:01;;;;;;;19.30;10.73;;;2.30;74.10;;;;;;5079413;28;20044;-68
2021/01/07 00:21:27;;;;;;;18.10;10.82;;;2.20;73.60;;;;;;5045757;28;20051;-68
2021/01/07 00:23:52;;;;;;;17.17;9.35;;;2.30;73.70;;;;;;5081122;28;20051;-68
2021/01/07 00:26:18;;;;;;;17.33;10.40;;;2.40;74.40;;;;;;5079409;28;20103;-68
2021/01/07 00:28:44;;;;;;;17.55;10.25;;;2.40;74.10;;;;;;5080964;28;20036;-68
2021/01/07 00:31:09;;;;;;;18.05;10.65;;;2.40;74.00;;;;;;5062304;28;20048;-68
2021/01/07 00:33:35;;;;;;;18.70;10.38;;;2.20;74.20;;;;;;5080753;28;20044;-68
2021/01/07 00:36:00;;;;;;;19.42;10.27;;;2.30;73.80;;;;;;5047727;28;20040;-68
2021/01/07 00:38:26;;;;;;;19.85;10.68;;;2.40;74.40;;;;;;5078707;28;20086;-68
2021/01/07 00:40:51;;;;;;;19.27;10.68;;;2.40;74.40;;;;;;5080392;28;20041;-68
2021/01/07 00:43:17;;;;;;;19.48;11.13;;;2.40;74.60;;;;;;5061867;28;20060;-68
2021/01/07 00:45:43;;;;;;;19.27;10.55;;;2.40;74.30;;;;;;5078248;28;20037;-68
2021/01/07 00:48:08;;;;;;;17.40;10.57;;;2.30;74.60;;;;;;5079816;28;20032;-68
2021/01/07 00:50:34;;;;;;;17.73;10.40;;;2.30;74.30;;;;;;5081303;28;20142;-68
2021/01/07 00:52:59;;;;;;;17.60;10.45;;;2.40;74.70;;;;;;5063868;28;20028;-68
2021/01/07 00:55:25;;;;;;;16.70;10.05;;;2.40;74.70;;;;;;5078483;28;20032;-68
2021/01/07 00:57:50;;;;;;;17.25;10.65;;;2.40;74.60;;;;;;5078124;28;20033;-68
2021/01/07 01:00:18;;;;;;;17.65;10.52;;;2.40;74.70;;;;;;5081339;28;20036;-68
2021/01/07 01:02:44;;;;;;;18.33;10.90;;;2.40;74.80;;;;;;5080327;28;20086;-68
2021/01/07 01:05:10;;;;;;;17.65;10.60;;;2.40;74.60;;;;;;5063562;28;20311;-68
2021/01/07 01:07:35;;;;;;;17.92;10.35;;;2.50;74.20;;;;;;5079120;28;20051;-68
2021/01/07 01:10:01;;;;;;;19.30;10.32;;;2.40;74.40;;;;;;5061354;28;20107;-68
2021/01/07 01:12:27;;;;;;;21.27;11.32;;;2.50;74.70;;;;;;5079796;28;20259;-68
2021/01/07 01:14:52;;;;;;;21.40;11.00;;;2.50;74.70;;;;;;5063432;28;20040;-67
2021/01/07 01:17:18;;;;;;;18.67;10.77;;;2.50;74.80;;;;;;5078036;28;20248;-68
2021/01/07 01:19:43;;;;;;;19.85;11.43;;;2.40;74.30;;;;;;5046734;28;20094;-67
2021/01/07 01:22:09;;;;;;;20.58;11.20;;;2.40;74.90;;;;;;5078240;28;20048;-68
2021/01/07 01:24:35;;;;;;;21.25;11.32;;;2.50;74.70;;;;;;5063060;28;20036;-68
2021/01/07 01:27:01;;;;;;;17.25;10.18;;;2.50;74.30;;;;;;5079869;28;20045;-68
2021/01/07 01:29:27;;;;;;;20.40;11.50;;;2.50;74.80;;;;;;5045377;28;20104;-68
2021/01/07 01:31:52;;;;;;;19.83;11.40;;;2.50;74.70;;;;;;5063314;28;20085;-68
2021/01/07 01:34:22;;;;;;;20.35;10.90;;;2.50;74.40;;;;;;5044586;28;20268;-68
2021/01/07 01:36:47;;;;;;;18.75;11.02;;;2.40;74.20;;;;;;5044636;28;20311;-68
2021/01/07 01:39:16;;;;;;;20.77;11.48;;;2.40;74.80;;;;;;5079570;28;20048;-68
2021/01/07 01:41:42;;;;;;;18.23;10.85;;;2.50;75.10;;;;;;5046742;28;20282;-69
2021/01/07 01:44:11;;;;;;;19.17;11.23;;;2.50;74.80;;;;;;5079639;28;20083;-68
2021/01/07 01:46:37;;;;;;;21.42;11.40;;;2.60;75.10;;;;;;5061994;28;20086;-68
2021/01/07 01:49:03;;;;;;;18.38;10.88;;;2.50;74.90;;;;;;5061096;28;20036;-68
2021/01/07 01:51:30;;;;;;;17.48;10.32;;;2.50;75.10;;;;;;5063056;28;20040;-68
2021/01/07 01:53:55;;;;;;;17.70;10.45;;;2.50;75.30;;;;;;5046302;28;20036;-67
2021/01/07 01:56:21;;;;;;;21.60;11.60;;;2.40;75.50;;;;;;5060934;28;20028;-68
2021/01/07 01:58:47;;;;;;;18.13;10.73;;;2.50;75.50;;;;;;5062753;28;20106;-69
2021/01/07 02:01:12;;;;;;;20.73;11.23;;;2.50;75.60;;;;;;5044477;28;20220;-68
2021/01/07 02:03:41;;;;;;;21.08;11.55;;;2.50;75.60;;;;;;5078973;28;20434;-68
2021/01/07 02:06:08;;;;;;;19.33;11.32;;;2.50;75.50;;;;;;5061580;28;20040;-68
2021/01/07 02:08:34;;;;;;;21.42;11.55;;;2.50;75.50;;;;;;5064898;28;20044;-68
2021/01/07 02:10:59;;;;;;;20.25;11.90;;;2.50;75.90;;;;;;5033153;28;20028;-68
2021/01/07 02:13:25;;;;;;;20.77;10.98;;;2.50;75.80;;;;;;5081593;28;20036;-68
2021/01/07 02:15:51;;;;;;;19.08;11.27;;;2.60;75.80;;;;;;5081128;28;20036;-68
2021/01/07 02:18:16;;;;;;;21.17;11.57;;;2.60;75.90;;;;;;5083906;28;20082;-68
2021/01/07 02:20:42;;;;;;;18.92;10.82;;;2.50;75.80;;;;;;5049639;28;20336;-68
2021/01/07 02:23:08;;;;;;;17.95;10.85;;;2.60;76.10;;;;;;5084408;28;20059;-68
2021/01/07 02:25:34;;;;;;;19.85;11.75;;;2.60;75.60;;;;;;5064413;28;20040;-68
2021/01/07 02:27:59;;;;;;;20.23;11.40;;;2.60;75.50;;;;;;5080807;28;20032;-68
2021/01/07 02:30:26;;;;;;;19.45;10.77;;;2.70;75.50;;;;;;5083993;28;20029;-68
2021/01/07 02:32:51;;;;;;;21.52;12.10;;;2.50;75.40;;;;;;5082871;28;20059;-69
2021/01/07 02:35:17;;;;;;;20.42;11.25;;;2.50;75.80;;;;;;5081173;28;20032;-68
2021/01/07 02:37:42;;;;;;;22.50;12.85;;;2.60;76.00;;;;;;5066220;28;20025;-68
2021/01/07 02:40:09;;;;;;;20.02;11.60;;;2.40;76.10;;;;;;5081915;28;20032;-68
2021/01/07 02:42:35;;;;;;;20.23;11.40;;;2.40;76.00;;;;;;5082383;28;20081;-68
2021/01/07 02:45:00;;;;;;;19.30;11.20;;;2.40;75.80;;;;;;5082787;28;20070;-68
2021/01/07 02:47:26;;;;;;;17.88;10.70;;;2.50;75.90;;;;;;5080991;28;20043;-68
2021/01/07 02:49:51;;;;;;;22.25;11.57;;;2.60;75.70;;;;;;5083989;28;20045;-68
2021/01/07 02:52:17;;;;;;;20.40;11.15;;;2.60;75.70;;;;;;5080731;28;20025;-68
2021/01/07 02:54:42;;;;;;;18.65;10.55;;;2.50;75.20;;;;;;5080759;28;20040;-68
2021/01/07 02:57:08;;;;;;;18.70;11.10;;;2.60;75.60;;;;;;5065444;28;20056;-68
2021/01/07 02:59:34;;;;;;;19.55;11.05;;;2.60;75.70;;;;;;5065719;28;20037;-68
2021/01/07 03:01:59;;;;;;;18.67;10.90;;;2.60;75.50;;;;;;5065570;28;20048;-68
2021/01/07 03:04:25;;;;;;;17.45;10.38;;;2.60;75.00;;;;;;5080461;28;20243;-68
2021/01/07 03:06:50;;;;;;;19.88;11.05;;;2.60;75.40;;;;;;5081291;28;20228;-68
2021/01/07 03:09:16;;;;;;;19.15;10.18;;;2.50;75.10;;;;;;5065118;28;20037;-68
2021/01/07 03:11:41;;;;;;;18.88;11.05;;;2.50;76.10;;;;;;5081812;28;20036;-68
2021/01/07 03:14:07;;;;;;;18.45;11.25;;;2.60;75.70;;;;;;5082136;28;20067;-68
2021/01/07 03:16:32;;;;;;;19.75;11.05;;;2.40;75.60;;;;;;5080394;28;20033;-68
2021/01/07 03:18:58;;;;;;;17.60;10.68;;;2.50;75.90;;;;;;5062695;28;20033;-68
2021/01/07 03:21:23;;;;;;;18.48;11.18;;;2.60;75.20;;;;;;5081685;28;20083;-68
2021/01/07 03:23:49;;;;;;;18.05;9.98;;;2.60;75.30;;;;;;5065266;28;20082;-68
2021/01/07 03:26:15;;;;;;;19.20;10.60;;;2.50;75.10;;;;;;5081287;28;20044;-68
2021/01/07 03:28:41;;;;;;;20.70;11.48;;;2.40;75.00;;;;;;5064875;28;20271;-68
2021/01/07 03:31:07;;;;;;;17.90;9.95;;;2.50;75.10;;;;;;5080124;28;20032;-68
2021/01/07 03:33:32;;;;;;;16.10;9.93;;;2.50;75.40;;;;;;5081647;28;20086;-68
2021/01/07 03:35:59;;;;;;;18.13;10.65;;;2.50;75.10;;;;;;5048446;28;20037;-68
2021/01/07 03:38:25;;;;;;;16.40;9.57;;;2.50;75.50;;;;;;5063588;28;20445;-68
2021/01/07 03:40:51;;;;;;;18.50;10.15;;;2.60;75.10;;;;;;5081434;28;20036;-68
2021/01/07 03:43:16;;;;;;;16.05;9.95;;;2.50;74.50;;;;;;5080930;28;20048;-68
2021/01/07 03:45:42;;;;;;;19.75;10.27;;;2.50;75.20;;;;;;5062886;28;20040;-69
2021/01/07 03:48:07;;;;;;;16.10;9.30;;;2.60;75.10;;;;;;5081106;28;20032;-68
2021/01/07 03:50:33;;;;;;;16.67;9.95;;;2.60;75.20;;;;;;5082352;28;20028;-68
2021/01/07 03:52:59;;;;;;;16.23;9.68;;;2.60;74.50;;;;;;5081624;28;20055;-68
2021/01/07 03:55:24;;;;;;;19.48;9.85;;;2.50;74.30;;;;;;5079612;28;20039;-68
2021/01/07 03:57:50;;;;;;;18.55;9.93;;;2.50;74.30;;;;;;5079262;28;20397;-68
2021/01/07 04:00:16;;;;;;;14.65;8.95;;;2.50;74.90;;;;;;5064383;28;20252;-68
2021/01/07 04:02:41;;;;;;;15.95;9.85;;;2.60;74.60;;;;;;5064232;28;20103;-68
2021/01/07 04:05:07;;;;;;;16.27;9.63;;;2.60;74.50;;;;;;5082102;28;20263;-68
2021/01/07 04:07:33;;;;;;;19.98;10.07;;;2.60;74.30;;;;;;5080584;28;20093;-68
2021/01/07 04:09:58;;;;;;;17.77;9.98;;;2.50;74.40;;;;;;5079512;28;20040;-68
2021/01/07 04:12:24;;;;;;;16.90;9.60;;;2.50;74.90;;;;;;5064112;28;20212;-68
2021/01/07 04:14:49;;;;;;;17.65;10.10;;;2.50;74.50;;;;;;5081015;28;20047;-68
2021/01/07 04:17:15;;;;;;;16.15;9.35;;;2.60;74.50;;;;;;5079344;28;20036;-68
2021/01/07 04:19:43;;;;;;;15.63;8.80;;;2.50;74.70;;;;;;5081815;28;20154;-67
2021/01/07 04:22:09;;;;;;;18.23;9.20;;;2.50;74.90;;;;;;5080223;28;20327;-68
2021/01/07 04:24:35;;;;;;;17.30;9.15;;;2.40;74.50;;;;;;5047166;28;20086;-68
2021/01/07 04:27:03;;;;;;;16.98;9.60;;;2.40;74.80;;;;;;5064132;28;20350;-68
2021/01/07 04:29:29;;;;;;;15.95;9.63;;;2.40;75.20;;;;;;5046260;28;20074;-68
2021/01/07 04:31:54;;;;;;;15.48;9.10;;;2.50;75.00;;;;;;5081330;28;20044;-67
2021/01/07 04:34:20;;;;;;;16.52;9.68;;;2.50;74.90;;;;;;5062082;28;20235;-68
2021/01/07 04:36:45;;;;;;;16.23;9.77;;;2.50;75.20;;;;;;5078650;28;20037;-68
2021/01/07 04:39:11;;;;;;;17.77;10.50;;;2.40;74.70;;;;;;5046745;28;20100;-68
2021/01/07 04:41:36;;;;;;;17.45;10.15;;;2.60;75.10;;;;;;5080151;28;20040;-68
2021/01/07 04:44:02;;;;;;;17.40;10.32;;;2.50;74.80;;;;;;5081368;28;20068;-68
2021/01/07 04:46:28;;;;;;;17.88;10.60;;;2.50;74.80;;;;;;5061804;28;20036;-68
2021/01/07 04:48:53;;;;;;;20.30;10.50;;;2.50;74.60;;;;;;5061811;28;20040;-68
2021/01/07 04:51:19;;;;;;;17.42;9.70;;;2.50;74.60;;;;;;5046689;28;20047;-68
2021/01/07 04:53:44;;;;;;;17.42;10.77;;;2.60;74.60;;;;;;5080311;28;20063;-68
2021/01/07 04:56:10;;;;;;;19.00;10.75;;;2.50;74.40;;;;;;5080157;28;20060;-68
2021/01/07 04:58:36;;;;;;;19.13;11.45;;;2.60;74.50;;;;;;5061638;28;20036;-68
2021/01/07 05:01:02;;;;;;;17.45;10.50;;;2.60;74.10;;;;;;5045060;28;20272;-68
2021/01/07 05:03:30;;;;;;;19.80;10.40;;;2.50;74.30;;;;;;5046773;28;20029;-68
2021/01/07 05:05:56;;;;;;;18.13;10.20;;;2.50;74.30;;;;;;5063221;28;20043;-67
2021/01/07 05:08:22;;;;;;;17.63;10.43;;;2.40;74.80;;;;;;5078682;28;20040;-68
2021/01/07 05:10:47;;;;;;;20.17;10.23;;;2.40;75.00;;;;;;5079995;28;20092;-68
2021/01/07 05:13:22;;;;;;;21.08;11.65;;;2.40;74.60;;;;;;5061708;28;20029;-67
2021/01/07 05:15:48;;;;;;;19.63;11.13;;;2.40;74.20;;;;;;5061549;28;20355;-67
2021/01/07 05:18:14;;;;;;;19.13;10.57;;;2.40;74.40;;;;;;5079805;28;20094;-68
2021/01/07 05:20:40;;;;;;;17.23;9.93;;;2.40;74.60;;;;;;5063172;28;20036;-68
2021/01/07 05:23:06;;;;;;;17.88;10.75;;;2.50;74.30;;;;;;5063089;28;20040;-68
2021/01/07 05:25:32;;;;;;;18.63;10.40;;;2.50;74.30;;;;;;5061569;28;20032;-68
2021/01/07 05:28:01;;;;;;;16.33;10.27;;;2.50;74.40;;;;;;5044797;28;20040;-68
2021/01/07 05:30:27;;;;;;;20.23;11.60;;;2.50;74.30;;;;;;5062868;28;20087;-68
2021/01/07 05:33:01;;;;;;;18.35;10.60;;;2.50;74.50;;;;;;5079658;28;20267;-68
2021/01/07 05:35:27;;;;;;;21.98;11.63;;;2.40;73.90;;;;;;5078155;28;20261;-67
2021/01/07 05:37:52;;;;;;;19.35;11.23;;;2.40;74.50;;;;;;5062906;28;20041;-68
2021/01/07 05:40:18;;;;;;;19.52;11.50;;;2.40;74.40;;;;;;5079072;28;20032;-67
2021/01/07 05:42:45;;;;;;;20.05;11.00;;;2.40;74.30;;;;;;5061784;28;20055;-68
2021/01/07 05:45:11;;;;;;;20.58;11.38;;;2.50;74.00;;;;;;5066766;28;20100;-68
2021/01/07 05:47:38;;;;;;;20.15;11.00;;;2.40;74.10;;;;;;5050518;28;20212;-67
2021/01/07 05:50:05;;;;;;;21.65;10.65;;;2.40;74.10;;;;;;5083713;28;20064;-67
2021/01/07 05:52:30;;;;;;;20.00;11.68;;;2.40;74.30;;;;;;5082128;28;20042;-67
2021/01/07 05:54:56;;;;;;;21.13;11.35;;;2.40;73.70;;;;;;5081985;28;20060;-67
2021/01/07 05:57:22;;;;;;;19.00;10.88;;;2.40;73.80;;;;;;5066641;28;20438;-68
2021/01/07 05:59:48;;;;;;;21.90;11.25;;;2.40;73.50;;;;;;5066481;28;20346;-68
2021/01/07 06:02:15;;;;;;;21.65;12.00;;;2.30;73.50;;;;;;5082435;28;20098;-68
2021/01/07 06:04:42;;;;;;;21.73;11.98;;;2.30;73.50;;;;;;5083365;28;20040;-68
2021/01/07 06:07:07;;;;;;;20.92;10.90;;;2.30;73.50;;;;;;5048494;28;20031;-68
2021/01/07 06:09:33;;;;;;;20.42;11.60;;;2.10;73.40;;;;;;5082861;28;20107;-68
2021/01/07 06:11:59;;;;;;;24.42;11.93;;;2.10;74.00;;;;;;5033686;28;20041;-67
2021/01/07 06:14:25;;;;;;;21.15;12.02;;;2.20;73.90;;;;;;5081736;28;20037;-67
2021/01/07 06:16:55;;;;;;;19.58;11.05;;;2.20;74.20;;;;;;5083430;28;20051;-67
2021/01/07 06:19:35;;;;;;;24.52;12.57;;;2.30;73.80;;;;;;5065510;28;20037;-68
2021/01/07 06:22:01;;;;;;;21.02;11.02;;;2.30;73.70;;;;;;5064873;28;20037;-67
2021/01/07 06:24:30;;;;;;;23.83;12.15;;;2.30;74.00;;;;;;5049314;28;20095;-67
2021/01/07 06:26:55;;;;;;;22.80;11.60;;;2.30;74.10;;;;;;5083142;28;20067;-68
2021/01/07 06:29:21;;;;;;;18.65;10.88;;;2.40;73.90;;;;;;5064815;28;20090;-68
2021/01/07 06:31:55;;;;;;;20.83;11.07;;;2.30;73.80;;;;;;5082959;28;20037;-68
2021/01/07 06:34:25;;;;;;;24.08;11.90;;;2.20;74.60;;;;;;5064473;28;20089;-68
2021/01/07 06:36:51;;;;;;;43.45;12.77;;;2.20;73.90;;;;;;5064186;28;20320;-68
2021/01/07 06:39:22;;;;;;;27.20;12.70;;;2.20;73.70;;;;;;5083382;28;20086;-67
2021/01/07 06:41:51;;;;;;;;;;;2.10;73.80;;;;;;5082939;28;20037;-68
2021/01/07 06:44:16;;;;;;;25.15;11.48;;;2.10;73.50;;;;;;5080665;28;19916;-68
2021/01/07 06:46:43;;;;;;;26.83;12.05;;;2.00;73.50;;;;;;5065548;28;20275;-70
2021/01/07 06:49:28;;;;;;;25.33;11.85;;;1.90;72.90;;;;;;5047193;28;20327;-68
2021/01/07 06:51:57;;;;;;;23.00;11.43;;;2.00;73.30;;;;;;5080671;28;20067;-68
2021/01/07 06:54:35;;;;;;;21.83;12.15;;;1.90;72.30;;;;;;5082021;28;20080;-68
2021/01/07 06:57:05;;;;;;;23.90;11.60;;;1.80;72.20;;;;;;5066363;28;20041;-67
2021/01/07 06:59:31;;;;;;;24.23;12.80;;;1.70;72.20;;;;;;5080925;28;20032;-68
2021/01/07 07:01:57;;;;;;;25.63;11.85;;;1.60;71.70;;;;;;5065437;28;20044;-68
2021/01/07 07:04:30;;;;;;;22.20;11.43;;;1.50;71.90;;;;;;5080627;28;20036;-68
2021/01/07 07:07:15;;;;;;;24.13;11.05;;;1.40;72.10;;;;;;5080492;28;20358;-70
2021/01/07 07:09:44;;;;;;;24.23;11.65;;;1.30;71.60;;;;;;5072333;28;20041;-69
2021/01/07 07:12:09;;;;;;;23.73;11.88;;;1.20;72.20;;;;;;5048202;28;20082;-68
2021/01/07 07:14:35;;;;;;;24.20;11.63;;;1.10;72.00;;;;;;5064768;28;20317;-68
2021/01/07 07:17:05;;;;;;;26.27;12.45;;;1.00;71.80;;;;;;5082046;28;20324;-65
2021/01/07 07:19:31;;;;;;;24.70;11.68;;;1.00;71.30;;;;;;5080380;28;20036;-66
2021/01/07 07:22:00;;;;;;;24.98;11.65;;;1.00;71.20;;;;;;5081136;28;20107;-68
2021/01/07 07:24:39;;;;;;;25.50;12.43;;;0.90;71.40;;;;;;5065442;28;20177;-64
2021/01/07 07:27:09;;;;;;;28.92;11.52;;;0.90;70.90;;;;;;5065203;28;20040;-65
2021/01/07 07:29:36;;;;;;;26.67;11.82;;;0.80;70.60;;;;;;5065326;28;20036;-66
2021/01/07 07:32:18;;;;;;;28.65;12.23;;;0.80;70.80;;;;;;5064977;28;20108;-66
2021/01/07 07:34:43;;;;;;;29.85;12.15;;;0.80;71.00;;;;;;5080643;28;20176;-65
2021/01/07 07:37:20;;;;;;;23.58;11.23;;;0.80;70.40;;;;;;5063246;28;20032;-65
2021/01/07 07:39:47;;;;;;;24.33;10.85;;;0.80;70.60;;;;;;5080260;28;20099;-64
2021/01/07 07:42:13;;;;;;;21.27;10.98;;;0.90;71.00;;;;;;5082631;28;20223;-64
2021/01/07 07:44:38;;;;;;;23.17;11.93;;;0.90;71.40;;;;;;5064915;28;20109;-64
2021/01/07 07:47:04;;;;;;;27.15;12.32;;;1.10;71.50;;;;;;5082591;28;20045;-63
2021/01/07 07:49:29;;;;;;;24.40;12.35;;;1.10;71.90;;;;;;5081269;28;20044;-63
2021/01/07 07:51:55;;;;;;;23.98;11.63;;;1.20;71.70;;;;;;5080753;28;20048;-64
2021/01/07 07:54:20;;;;;;;22.80;12.27;;;1.20;72.00;;;;;;5081352;28;20036;-64
2021/01/07 07:56:47;;;;;;;26.17;12.68;;;1.10;72.30;;;;;;5081603;28;20036;-65
2021/01/07 07:59:12;;;;;;;23.20;11.93;;;1.10;72.80;;;;;;5080735;28;20323;-65
2021/01/07 08:01:39;;;;;;;25.95;12.95;;;1.20;73.30;;;;;;5082198;28;20082;-65
2021/01/07 08:04:10;;;;;;;26.13;12.80;;;1.20;73.00;;;;;;5062718;28;20043;-64
2021/01/07 08:06:36;;;;;;;21.40;12.43;;;1.20;73.10;;;;;;5080341;28;20032;-64
2021/01/07 08:09:06;;;;;;;24.42;12.70;;;1.30;73.30;;;;;;5082113;28;20036;-65
2021/01/07 08:11:42;;;;;;;27.35;13.43;;;1.40;73.60;;;;;;5080544;28;21387;-64
2021/01/07 08:14:12;;;;;;;22.55;12.30;;;1.40;73.40;;;;;;5081010;28;20104;-63
2021/01/07 08:16:38;;;;;;;23.02;13.55;;;1.40;73.40;;;;;;5080744;28;20044;-64
2021/01/07 08:19:20;;;;;;;23.73;12.57;;;1.50;73.30;;;;;;5079830;28;20316;-65
2021/01/07 08:21:47;;;;;;;25.00;12.85;;;1.50;73.30;;;;;;5062920;28;20103;-64
2021/01/07 08:24:13;;;;;;;22.50;12.98;;;1.60;73.30;;;;;;5063779;28;20273;-66
2021/01/07 08:26:39;;;;;;;23.70;12.05;;;1.60;73.50;;;;;;5080774;28;20236;-63
2021/01/07 08:29:07;;;;;;;21.85;12.40;;;1.80;73.10;;;;;;5064317;28;20109;-63
2021/01/07 08:31:33;;;;;;;28.90;13.27;;;1.80;73.30;;;;;;5079780;28;20340;-63
2021/01/07 08:33:58;;;;;;;24.52;12.43;;;1.90;73.30;;;;;;5077976;28;20058;-64
2021/01/07 08:36:24;;;;;;;24.50;13.15;;;1.90;73.40;;;;;;5047152;28;20100;-64
2021/01/07 08:38:53;;;;;;;23.88;12.70;;;1.90;73.60;;;;;;5063422;28;20035;-64
2021/01/07 08:41:21;;;;;;;23.02;12.38;;;2.00;73.40;;;;;;5078434;28;20036;-64
2021/01/07 08:43:47;;;;;;;25.27;12.95;;;2.00;73.50;;;;;;5080966;28;20048;-64
2021/01/07 08:46:17;;;;;;;23.50;12.00;;;2.10;73.40;;;;;;5078461;28;20052;-65
2021/01/07 08:48:43;;;;;;;24.02;12.43;;;2.20;73.70;;;;;;5079506;28;20066;-65
2021/01/07 08:51:17;;;;;;;22.17;12.30;;;2.20;73.30;;;;;;5080314;28;20043;-64
2021/01/07 08:53:55;;;;;;;22.52;12.40;;;2.40;73.10;;;;;;5081151;28;20062;-64
2021/01/07 08:56:34;;;;;;;20.25;11.63;;;2.40;73.10;;;;;;5061883;28;20037;-64
2021/01/07 08:59:22;;;;;;;25.95;13.68;;;2.50;72.80;;;;;;5080976;28;20028;-63
2021/01/07 09:01:54;;;;;;;29.27;13.40;;;2.60;72.50;;;;;;5079067;28;20194;-65
2021/01/07 09:04:24;;;;;;;22.40;12.30;;;2.60;72.90;;;;;;5079350;28;20255;-64
2021/01/07 09:07:15;;;;;;;29.80;13.15;;;2.70;72.40;;;;;;5078361;28;20081;-69
2021/01/07 09:09:48;;;;;;;20.80;11.70;;;2.70;72.40;;;;;;5069538;28;20044;-66
2021/01/07 09:12:29;;;;;;;21.48;11.77;;;2.90;72.20;;;;;;5078682;28;20052;-65
2021/01/07 09:15:17;;;;;;;24.20;12.65;;;2.90;72.20;;;;;;5079896;28;20201;-65
2021/01/07 09:17:52;;;;;;;23.17;12.30;;;3.00;71.80;;;;;;5077873;28;20032;-65
2021/01/07 09:20:36;;;;;;;23.27;12.07;;;3.20;72.10;;;;;;5079395;28;20036;-64
2021/01/07 09:23:03;;;;;;;21.25;12.07;;;3.40;70.80;;;;;;5081128;28;20047;-65
2021/01/07 09:25:29;;;;;;;20.85;11.85;;;3.50;70.50;;;;;;5078205;28;20052;-66
2021/01/07 09:27:55;;;;;;;21.95;12.13;;;3.80;70.10;;;;;;5061337;28;20044;-66
2021/01/07 09:30:21;;;;;;;21.38;11.68;;;3.90;69.20;;;;;;5079865;28;20036;-65
2021/01/07 09:32:46;;;;;;;22.25;11.00;;;4.10;69.30;;;;;;5081028;28;20208;-65
2021/01/07 09:35:12;;;;;;;21.05;12.15;;;4.20;67.50;;;;;;5079313;28;20092;-67
2021/01/07 09:37:38;;;;;;;19.40;10.73;;;4.20;68.10;;;;;;5079673;28;20041;-63
2021/01/07 09:40:04;;;;;;;20.67;10.77;;;4.40;67.80;;;;;;5079049;28;20032;-64
2021/01/07 09:42:31;;;;;;;22.35;11.55;;;4.40;67.40;;;;;;5079452;28;20048;-64
2021/01/07 09:44:56;;;;;;;21.83;11.85;;;4.50;67.10;;;;;;5079874;28;20043;-64
2021/01/07 09:47:23;;;;;;;22.17;11.45;;;4.70;67.00;;;;;;5044537;28;20036;-64
2021/01/07 09:49:49;;;;;;;22.08;11.60;;;4.90;66.30;;;;;;5079509;28;20036;-65
2021/01/07 09:52:15;;;;;;;19.58;11.18;;;5.30;65.90;;;;;;5061157;28;20088;-66
2021/01/07 09:54:41;;;;;;;20.13;11.95;;;5.70;64.10;;;;;;5079099;28;20037;-66
2021/01/07 09:57:06;;;;;;;20.20;11.00;;;6.30;63.10;;;;;;5061101;28;20036;-66
2021/01/07 09:59:32;;;;;;;19.35;10.80;;;6.40;60.20;;;;;;5080367;28;20048;-66
2021/01/07 10:01:59;;;;;;;19.67;12.05;;;6.30;61.30;;;;;;5079387;28;20033;-66
2021/01/07 10:04:25;;;;;;;20.25;11.27;;;6.20;61.00;;;;;;5077524;28;20070;-66
2021/01/07 10:06:50;;;;;;;20.55;11.35;;;6.40;61.60;;;;;;5078540;28;20040;-66
2021/01/07 10:09:16;;;;;;;20.48;11.77;;;6.90;60.10;;;;;;5079111;28;20092;-70
2021/01/07 10:11:42;;;;;;;17.35;10.82;;;7.30;58.00;;;;;;5062851;28;20042;-68
2021/01/07 10:14:07;;;;;;;17.73;10.70;;;7.90;56.20;;;;;;5045942;28;20036;-65
2021/01/07 10:16:33;;;;;;;17.33;10.93;;;8.00;54.70;;;;;;5078501;28;20036;-64
2021/01/07 10:18:59;;;;;;;18.70;10.50;;;8.10;55.40;;;;;;5078611;28;20086;-67
2021/01/07 10:21:25;;;;;;;17.67;10.63;;;8.20;54.00;;;;;;5062423;28;20028;-68
2021/01/07 10:23:52;;;;;;;17.17;10.95;;;8.10;54.50;;;;;;5062739;28;20369;-62
2021/01/07 10:26:18;;;;;;;17.05;10.77;;;7.80;54.90;;;;;;5078902;28;20099;-62
2021/01/07 10:28:47;;;;;;;18.45;10.73;;;7.50;56.20;;;;;;5079997;28;20037;-63
2021/01/07 10:31:16;;;;;;;19.63;11.45;;;7.10;57.30;;;;;;5082160;28;20044;-69
2021/01/07 10:33:43;;;;;;;19.15;11.38;;;6.90;57.80;;;;;;5082898;28;20033;-68
2021/01/07 10:36:09;;;;;;;19.50;11.52;;;6.90;59.30;;;;;;5081517;28;20036;-65
2021/01/07 10:38:36;;;;;;;21.10;11.40;;;6.80;59.90;;;;;;5082455;28;20029;-63
2021/01/07 10:41:02;;;;;;;17.70;11.25;;;6.80;59.40;;;;;;5082530;28;20346;-64
2021/01/07 10:43:27;;;;;;;18.60;10.43;;;6.80;59.00;;;;;;5080702;28;20032;-67
2021/01/07 10:45:53;;;;;;;18.38;10.77;;;6.70;60.10;;;;;;5080459;28;20067;-66
2021/01/07 10:48:22;;;;;;;16.33;10.60;;;6.90;58.70;;;;;;5083363;28;20021;-65
2021/01/07 10:50:49;;;;;;;17.23;10.73;;;7.20;59.10;;;;;;5082585;28;20091;-64
2021/01/07 10:53:51;;;;;;;17.95;11.13;;;7.00;59.50;;;;;;5064044;28;20350;-66
2021/01/07 10:56:32;;;;;;;21.40;11.57;;;6.80;60.40;;;;;;5080337;28;20043;-64
2021/01/07 10:59:16;;;;;;;18.35;10.90;;;6.60;61.20;;;;;;5083360;28;20041;-65
2021/01/07 11:02:08;;;;;;;18.98;10.95;;;6.40;61.90;;;;;;5082204;28;20028;-64
2021/01/07 11:04:33;;;;;;;;;;;6.10;60.70;;;;;;5058588;28;20044;-66
2021/01/07 11:07:05;;;;;;;16.42;10.15;;;5.70;60.50;;;;;;5081341;28;19966;-66
2021/01/07 11:09:32;;;;;;;17.13;10.50;;;5.60;63.80;;;;;;5082128;28;20341;-69
2021/01/07 11:12:02;;;;;;;18.75;10.43;;;5.60;63.90;;;;;;5065754;28;20040;-69
2021/01/07 11:14:28;;;;;;;17.20;10.23;;;5.70;63.20;;;;;;5063776;28;20040;-68
2021/01/07 11:16:57;;;;;;;19.02;10.52;;;5.60;62.00;;;;;;5064830;28;20032;-69
2021/01/07 11:19:23;;;;;;;16.15;10.02;;;5.70;64.50;;;;;;5080039;28;20096;-68
2021/01/07 11:22:02;;;;;;;15.50;10.02;;;5.70;64.30;;;;;;5080266;28;20036;-69
2021/01/07 11:24:27;;;;;;;17.58;10.15;;;5.60;63.00;;;;;;5081913;28;20036;-69
2021/01/07 11:26:54;;;;;;;19.95;11.32;;;5.50;63.90;;;;;;5064756;28;20040;-68
2021/01/07 11:29:20;;;;;;;35.80;11.48;;;5.40;63.10;;;;;;5079730;28;20067;-70
2021/01/07 11:31:45;;;;;;;15.23;9.70;;;5.40;64.80;;;;;;5065072;28;20041;-70
2021/01/07 11:34:12;;;;;;;17.45;10.05;;;5.50;64.10;;;;;;5079719;28;20043;-69
2021/01/07 11:36:46;;;;;;;15.90;9.65;;;5.60;63.60;;;;;;5048414;28;20063;-68
2021/01/07 11:39:12;;;;;;;16.50;9.77;;;5.60;63.70;;;;;;5064463;28;20040;-69
2021/01/07 11:42:05;;;;;;;15.70;10.20;;;5.70;63.80;;;;;;5080002;28;20044;-71
2021/01/07 11:44:42;;;;;;;16.13;10.32;;;5.80;63.70;;;;;;5079822;28;20048;-68
2021/01/07 11:47:09;;;;;;;15.77;9.63;;;5.90;62.00;;;;;;5064800;28;20095;-68
2021/01/07 11:49:41;;;;;;;14.70;9.05;;;5.80;62.50;;;;;;5046612;28;20103;-69
2021/01/07 11:52:09;;;;;;;16.38;9.30;;;5.70;62.40;;;;;;5079534;28;20060;-69
2021/01/07 11:54:39;;;;;;;14.88;9.90;;;5.60;63.30;;;;;;5080819;28;20040;-66
2021/01/07 11:57:08;;;;;;;18.08;10.45;;;5.60;63.90;;;;;;5062927;28;20041;-66
2021/01/07 11:59:37;;;;;;;18.52;10.65;;;5.50;64.00;;;;;;5081328;28;20039;-65
2021/01/07 12:02:06;;;;;;;16.15;10.07;;;5.50;63.70;;;;;;5081065;28;20047;-66
2021/01/07 12:04:32;;;;;;;18.83;10.27;;;5.50;63.80;;;;;;5062565;28;20071;-66
2021/01/07 12:07:04;;;;;;;18.67;11.13;;;5.40;64.90;;;;;;5078877;28;20041;-66
2021/01/07 12:09:38;;;;;;;19.15;11.63;;;5.40;63.80;;;;;;5080582;28;20039;-67
2021/01/07 12:12:06;;;;;;;18.85;10.73;;;5.40;63.50;;;;;;5063347;28;20029;-66
2021/01/07 12:14:54;;;;;;;16.13;9.60;;;5.50;63.10;;;;;;5064154;28;20044;-66
2021/01/07 12:17:19;;;;;;;17.25;10.18;;;5.90;63.10;;;;;;5079271;28;20264;-66
2021/01/07 12:19:45;;;;;;;17.88;10.07;;;6.20;62.80;;;;;;5080800;28;20047;-66
2021/01/07 12:22:15;;;;;;;17.67;10.68;;;6.30;61.80;;;;;;5079162;28;20028;-66
2021/01/07 12:24:42;;;;;;;17.65;10.35;;;6.50;61.80;;;;;;5080512;28;20037;-66
2021/01/07 12:27:07;;;;;;;19.05;10.68;;;6.70;60.70;;;;;;5062385;28;20047;-66
2021/01/07 12:29:37;;;;;;;15.70;10.48;;;6.90;60.30;;;;;;5063734;28;20216;-66
2021/01/07 12:32:07;;;;;;;17.23;10.75;;;6.90;60.40;;;;;;5064146;28;20091;-66
2021/01/07 12:34:43;;;;;;;16.98;10.15;;;6.90;71.60;;;;;;5079273;28;20044;-66
2021/01/07 12:37:12;;;;;;;19.33;10.80;;;7.00;59.80;;;;;;5078281;28;20036;-66
2021/01/07 12:39:56;;;;;;;16.45;10.57;;;7.00;58.20;;;;;;5080164;28;20047;-66
2021/01/07 12:42:28;;;;;;;15.98;9.73;;;7.00;58.60;;;;;;5078590;28;20033;-67